D Hanis, Texas
Current Conditions -  °F | °C
As of 7:51 AM on Wednesday 22 Oct 2014 (Local Time) from KHDO Reporting Station
Clear Clear  
Wind Chill: 55°   Ceiling: Unl
Heat Index: 55°   Visibility: 10mi
Dew Point: 52°   Wind: 8mph
Humidity: 89%   Direction: 30°NNE
Pressure: 30.1"   Gusts: NA
Location:  29.3507°N, 99.3117°W
Report Text: KHDO 221251Z AUTO 03007KT 10SM CLR 13/11 A3010 RMK AO2 SLP181 T01280111
Loading
Personal Weather Stations






























Interactive Weather Map New forecast layout! Learn more

10-Day Weather Forecast

Advertisements
Track Severe Weather on mobile